Station: Macquarie Island  

  Atmospheric Gas Attenuation - ITU Rec 676-11   ----------------- dB/100km -----------------
Date Time Temp RH % AH g/m3 Dew Point Wind Direction Speed kph Gust kph Barometer mB Rainfall Since 9am 24GHz 47GHz 76GHz 122GHz 134GHz 241GHz
04/09 01:30 2.9 91 5.38 1.6 32 35 974.5 1.8 13.1 22.2 30.1 79.0 64.7 219.5
04/09 01:20 3.1 90 5.39 1.6 39 56 974.5 1.8 13.1 22.2 30.0 78.9 64.7 219.4
04/09 01:10 4.4 88 5.75 2.6 26 32 974.2 1.2 13.8 22.4 31.0 81.3 68.2 232.0
04/09 01:00 4.3 88 5.71 2.5 26 32 974.2 1.2 13.8 22.4 30.8 81.0 67.8 230.5
04/09 00:50 4.3 88 5.71 2.5 30 35 974.1 1.2 13.8 22.4 30.8 81.0 67.8 230.5
04/09 00:40 4.2 88 5.67 2.4 32 35 974.2 1.2 13.7 22.3 30.7 80.7 67.4 229.0
04/09 00:30 4.2 89 5.74 2.6 30 35 974.1 1.2 13.8 22.4 31.0 81.4 68.3 232.2
04/09 00:20 4.2 89 5.74 2.6 30 35 974.1 1.2 13.8 22.4 31.0 81.4 68.3 232.2
04/09 00:10 4.2 89 5.74 2.6 30 35 973.9 1.2 13.8 22.4 31.0 81.4 68.3 232.1
04/09 00:00 4.2 89 5.74 2.6 28 33 973.8 1.2 13.8 22.4 31.0 81.4 68.2 232.1
03/09 23:50 4.2 89 5.74 2.6 28 33 973.7 1.2 13.8 22.4 31.0 81.4 68.2 232.1
03/09 23:40 4.3 89 5.78 2.7 28 32 973.7 1.2 13.9 22.5 31.1 81.7 68.7 233.6
03/09 23:30 4.4 89 5.82 2.8 26 32 973.7 1.2 14.0 22.5 31.2 82.0 69.1 235.1
03/09 23:20 4.4 89 5.82 2.8 26 32 973.8 1.2 14.0 22.5 31.2 82.0 69.1 235.2
03/09 23:10 4.5 89 5.85 2.8 24 30 973.8 1.2 14.1 22.5 31.3 82.3 69.4 236.2
03/09 23:00 4.5 89 5.85 2.8 28 35 973.8 1.2 14.1 22.5 31.3 82.3 69.4 236.2
03/09 22:50 4.6 89 5.89 2.9 28 35 974 1.2 14.1 22.6 31.4 82.6 69.9 237.8
03/09 22:40 4.6 89 5.89 2.9 30 37 974 1.2 14.1 22.6 31.4 82.6 69.9 237.8
03/09 22:30 4.5 90 5.92 3 32 37 973.9 1.2 14.2 22.6 31.6 83.0 70.3 239.5
03/09 22:20 4.5 92 6.05 3.3 26 32 973.8 1.2 14.5 22.9 32.1 84.4 72.0 245.4
03/09 22:10 4.4 92 6.01 3.2 30 33 973.8 1.2 14.4 22.8 32.0 84.1 71.6 243.9
03/09 22:00 4.5 93 6.12 3.5 30 32 973.9 1.2 14.6 23.0 32.4 85.1 73.0 248.7
03/09 21:50 4.5 93 6.12 3.5 30 32 973.8 1.2 14.6 23.0 32.4 85.1 73.0 248.7
03/09 21:40 4.5 93 6.12 3.5 30 32 973.8 1.2 14.6 23.0 32.4 85.1 73.0 248.7
03/09 21:30 4.5 93 6.12 3.5 30 33 973.9 1.2 14.6 23.0 32.4 85.1 73.0 248.7
03/09 21:20 4.5 93 6.12 3.5 32 35 973.9 1.2 14.6 23.0 32.4 85.1 73.0 248.7
03/09 21:10 4.5 93 6.12 3.5 30 33 973.9 1.2 14.6 23.0 32.4 85.1 73.0 248.7
03/09 21:00 4.5 93 6.12 3.5 30 32 973.8 1.2 14.6 23.0 32.4 85.1 73.0 248.7
03/09 20:50 4.4 93 6.08 3.4 28 32 973.8 1.2 14.6 22.9 32.2 84.8 72.5 247.1
03/09 20:40 4.4 93 6.08 3.4 26 30 973.8 1.2 14.6 22.9 32.2 84.8 72.5 247.1
03/09 20:30 4.5 93 6.12 3.5 28 30 973.7 1.2 14.6 23.0 32.4 85.1 73.0 248.7
03/09 20:20 4.5 93 6.12 3.5 28 30 973.6 1.2 14.6 23.0 32.4 85.1 72.9 248.6
03/09 20:10 4.5 93 6.12 3.5 28 30 973.6 1.2 14.6 23.0 32.4 85.1 72.9 248.6
03/09 20:00 4.5 93 6.12 3.5 28 32 973.7 1.2 14.6 23.0 32.4 85.1 73.0 248.7
03/09 19:50 4.4 93 6.08 3.4 24 28 973.7 1.2 14.6 22.9 32.2 84.8 72.5 247.1
03/09 19:40 4.4 93 6.08 3.4 24 28 973.7 1.2 14.6 22.9 32.2 84.8 72.5 247.1
03/09 19:30 4.4 93 6.08 3.4 24 28 973.7 1.2 14.6 22.9 32.2 84.8 72.5 247.1
03/09 19:20 4.4 92 6.01 3.2 24 28 973.8 1.2 14.4 22.8 32.0 84.1 71.6 243.9
03/09 19:10 4.4 92 6.01 3.2 24 28 973.7 1.2 14.4 22.8 32.0 84.1 71.6 243.9
03/09 19:00 4.4 92 6.01 3.2 24 28 973.7 1.2 14.4 22.8 32.0 84.1 71.6 243.9
03/09 18:50 4.4 91 5.95 3.1 22 26 973.7 1.2 14.3 22.7 31.7 83.4 70.8 241.1
03/09 18:40 4.4 91 5.95 3.1 20 26 973.7 1.2 14.3 22.7 31.7 83.4 70.8 241.1
03/09 18:30 4.4 91 5.95 3.1 22 26 973.7 1.2 14.3 22.7 31.7 83.4 70.8 241.1
03/09 18:20 4.4 91 5.95 3.1 24 28 973.5 1.2 14.3 22.7 31.7 83.4 70.8 241.1
03/09 18:10 4.3 91 5.91 3 24 28 973.5 1.2 14.2 22.7 31.6 83.1 70.4 239.5
03/09 18:00 4.4 90 5.88 2.9 26 30 973.4 1.2 14.1 22.6 31.4 82.6 69.9 237.8
03/09 17:50 4.3 90 5.84 2.8 26 30 973.5 1.2 14.0 22.6 31.3 82.3 69.4 236.3
03/09 17:40 4.3 90 5.84 2.8 24 28 973.4 1.2 14.0 22.6 31.3 82.3 69.4 236.3
03/09 17:30 4.3 90 5.84 2.8 24 28 973.3 1.2 14.0 22.5 31.3 82.3 69.4 236.3
03/09 17:20 4.4 90 5.88 2.9 24 28 973.3 1.2 14.1 22.6 31.4 82.6 69.9 237.8
03/09 17:10 4.4 90 5.88 2.9 24 30 973.3 1.2 14.1 22.6 31.4 82.6 69.9 237.8
03/09 17:00 4.4 90 5.88 2.9 24 30 973.2 1.2 14.1 22.6 31.4 82.6 69.9 237.8
03/09 16:50 4.4 89 5.82 2.8 24 28 973.1 1.2 14.0 22.5 31.2 82.0 69.1 235.0
03/09 16:40 4.6 89 5.89 2.9 24 28 973.1 1.2 14.1 22.5 31.4 82.5 69.8 237.6
03/09 16:30 4.6 88 5.83 2.8 26 30 973.2 1.2 14.0 22.5 31.2 81.9 69.0 234.9
03/09 16:20 4.7 87 5.8 2.7 26 32 973.2 1.2 13.9 22.4 31.0 81.5 68.5 233.2
03/09 16:10 4.8 87 5.84 2.8 28 33 973.1 1.2 14.0 22.4 31.1 81.8 69.0 234.7
03/09 16:00 4.8 87 5.84 2.8 30 33 972.8 1.2 14.0 22.4 31.1 81.7 69.0 234.7
03/09 15:50 4.9 87 5.88 2.9 30 33 972.7 1.2 14.1 22.4 31.2 82.0 69.4 236.2
03/09 15:40 5.1 87 5.96 3.1 30 35 972.4 1.2 14.3 22.5 31.4 82.7 70.2 239.1
03/09 15:30 5.1 87 5.96 3.1 32 35 972.5 1.2 14.3 22.5 31.4 82.7 70.2 239.2
03/09 15:20 5.3 88 6.1 3.5 32 35 972.4 1.2 14.6 22.7 31.9 83.9 71.9 244.9
03/09 15:10 5.2 89 6.13 3.5 30 35 972.4 1.2 14.6 22.7 32.1 84.3 72.3 246.6
03/09 15:00 5 88 5.98 3.2 33 41 972.2 1.2 14.3 22.6 31.5 82.9 70.6 240.3
03/09 14:50 5.1 88 6.02 3.3 35 43 972.2 1.2 14.4 22.6 31.7 83.3 71.0 241.8
03/09 14:40 5.1 88 6.02 3.3 35 41 972.1 1.2 14.4 22.6 31.7 83.3 71.0 241.8
03/09 14:30 5.2 87 5.99 3.2 37 43 972 1.2 14.3 22.5 31.5 82.8 70.5 240.1
03/09 14:20 5.2 87 5.99 3.2 39 44 972 1.2 14.3 22.5 31.5 82.8 70.5 240.1
03/09 14:10 5.2 88 6.06 3.4 37 43 972 1.2 14.5 22.6 31.8 83.6 71.4 243.3
03/09 14:00 5.2 87 5.99 3.2 37 43 971.7 1.2 14.3 22.5 31.5 82.8 70.5 240.1
03/09 13:50 5.2 87 5.99 3.2 39 46 971.7 1.2 14.3 22.5 31.5 82.8 70.5 240.1
03/09 13:40 5.3 88 6.1 3.5 39 46 971.7 1.2 14.6 22.6 31.9 83.8 71.8 244.8
03/09 13:30 5.4 88 6.14 3.6 43 50 971.6 1.2 14.7 22.7 32.0 84.2 72.2 246.3
03/09 13:20 5.4 87 6.07 3.4 44 56 971.3 1.2 14.5 22.6 31.7 83.4 71.3 243.0
03/09 13:10 5.5 88 6.18 3.7 48 56 971.1 1.2 14.7 22.7 32.1 84.4 72.6 247.7
03/09 13:00 5.5 88 6.18 3.7 50 59 971 1.2 14.7 22.7 32.1 84.4 72.6 247.6
03/09 12:50 5.7 87 6.2 3.7 50 63 970.8 1.2 14.8 22.7 32.1 84.4 72.7 247.9
03/09 12:40 5.7 88 6.27 3.9 46 59 970.7 1.2 14.9 22.8 32.3 85.1 73.6 251.1
03/09 12:30 5.9 90 6.49 4.4 44 56 970.6 1.2 15.4 23.1 33.1 87.2 76.3 260.5
03/09 12:20 6.1 91 6.65 4.7 43 50 970.7 1.2 15.7 23.3 33.7 88.7 78.2 267.2
03/09 12:10 5.9 91 6.57 4.5 43 50 970.6 1.2 15.6 23.2 33.5 88.1 77.3 264.2
03/09 12:00 5.9 92 6.64 4.7 41 46 970.6 1.2 15.7 23.3 33.7 88.8 78.2 267.4
03/09 11:50 5.9 92 6.64 4.7 41 46 970.5 1.2 15.7 23.3 33.7 88.8 78.2 267.4
03/09 11:40 5.9 92 6.64 4.7 44 50 970.4 1.2 15.7 23.3 33.7 88.8 78.2 267.4
03/09 11:30 5.9 92 6.64 4.7 44 52 970.4 1.2 15.7 23.3 33.7 88.8 78.2 267.4
03/09 11:20 6 92 6.68 4.8 46 56 970.5 1.2 15.8 23.4 33.8 89.1 78.7 268.9
03/09 11:10 6.2 92 6.77 5 50 61 970.3 1.2 16.0 23.4 34.1 89.8 79.6 272.3
03/09 11:00 6.2 92 6.77 5 52 59 970.2 1.2 16.0 23.4 34.1 89.8 79.6 272.3
03/09 10:50 6.2 93 6.84 5.2 54 63 970.3 1.2 16.2 23.6 34.4 90.6 80.6 275.6
03/09 10:40 6.3 93 6.89 5.3 52 59 970.2 1.2 16.3 23.6 34.6 91.0 81.1 277.5
03/09 10:30 6.4 93 6.93 5.4 50 57 970.2 1.2 16.3 23.6 34.7 91.3 81.5 279.0
03/09 10:20 6.5 94 7.05 5.6 54 65 970.2 1.2 16.6 23.8 35.1 92.5 83.0 284.3
03/09 10:10 6.3 94 6.96 5.4 52 61 970.4 1.2 16.4 23.7 34.8 91.8 82.1 280.9
03/09 10:00 6.3 95 7.04 5.6 48 57 970.6 1.2 16.6 23.9 35.2 92.7 83.1 284.6
03/09 09:50 6.3 95 7.04 5.6 46 57 970.8 1.2 16.6 23.9 35.2 92.7 83.2 284.7
03/09 09:40 5.9 95 6.85 5.2 30 46 971.2 1.2 16.2 23.7 34.6 91.1 81.1 277.3
03/09 09:30 5.8 94 6.74 4.9 24 33 971.6 1.2 16.0 23.5 34.2 90.1 79.7 272.7
03/09 09:20 5.6 94 6.65 4.7 17 26 971.9 1 15.8 23.5 34.0 89.4 78.8 269.2
03/09 09:10 5.3 93 6.45 4.3 19 22 972.3 0.4 15.3 23.2 33.3 87.6 76.5 261.0
03/09 09:00 5.5 93 6.54 4.5 20 32 972.4 0 15.5 23.3 33.6 88.4 77.5 264.6

Last Refresh: 04-Sep-2026 01:16:23

Bureau of Meteorology